createdAt,value
2022-10-11T00:01:46.313Z,2.67
2022-10-11T00:04:14.168Z,3.20
2022-10-11T00:06:43.496Z,2.53
2022-10-11T00:09:12.417Z,2.72
2022-10-11T00:11:41.593Z,2.88
2022-10-11T00:14:09.404Z,2.83
2022-10-11T00:16:38.545Z,2.50
2022-10-11T00:19:06.272Z,2.35
2022-10-11T00:21:34.003Z,2.47
2022-10-11T00:24:01.699Z,2.42
2022-10-11T00:26:29.860Z,2.30
2022-10-11T00:28:58.987Z,2.70
2022-10-11T00:31:26.767Z,2.22
2022-10-11T00:33:54.740Z,2.15
2022-10-11T00:36:24.949Z,1.83
2022-10-11T00:38:52.876Z,1.85
2022-10-11T00:41:20.626Z,1.80
2022-10-11T00:43:48.390Z,1.65
2022-10-11T00:46:31.007Z,1.90
2022-10-11T00:49:04.057Z,1.42
2022-10-11T00:51:40.293Z,1.52
2022-10-11T00:54:12.654Z,1.70
2022-10-11T00:56:42.354Z,1.52
2022-10-11T00:59:13.566Z,1.85
2022-10-11T01:04:10.428Z,1.33
2022-10-11T01:06:38.222Z,1.60
2022-10-11T01:09:06.536Z,1.90
2022-10-11T01:11:37.518Z,1.40
2022-10-11T01:14:26.513Z,1.95
2022-10-11T01:17:01.122Z,2.03
2022-10-11T01:19:56.013Z,1.98
2022-10-11T01:22:50.054Z,2.28
2022-10-11T01:25:25.777Z,2.33
2022-10-11T01:28:05.843Z,2.33
2022-10-11T01:30:36.142Z,2.63
2022-10-11T01:33:18.251Z,2.53
2022-10-11T01:35:50.022Z,2.80
2022-10-11T01:38:24.242Z,2.20
2022-10-11T01:40:56.240Z,2.55
2022-10-11T01:43:26.325Z,2.25
2022-10-11T01:45:58.481Z,2.15
2022-10-11T01:48:26.414Z,2.40
2022-10-11T01:50:56.888Z,1.90
2022-10-11T01:53:35.699Z,2.03
2022-10-11T01:56:10.767Z,2.25
2022-10-11T01:58:53.442Z,2.58
2022-10-11T02:01:32.231Z,2.38
2022-10-11T02:04:06.496Z,2.03
2022-10-11T02:06:41.013Z,2.03
2022-10-11T02:09:16.485Z,2.10
2022-10-11T02:11:44.494Z,1.88
2022-10-11T02:14:14.406Z,2.13
2022-10-11T02:16:47.308Z,2.53
2022-10-11T02:19:19.608Z,2.35
2022-10-11T02:21:53.690Z,2.25
2022-10-11T02:24:27.228Z,2.00
2022-10-11T02:26:57.946Z,2.13
2022-10-11T02:29:28.887Z,2.13
2022-10-11T02:32:00.557Z,2.22
2022-10-11T02:34:32.445Z,2.17
2022-10-11T02:37:06.004Z,2.15
2022-10-11T02:39:42.061Z,2.22
2022-10-11T02:42:15.856Z,2.28
2022-10-11T02:44:48.215Z,2.10
2022-10-11T02:47:17.835Z,2.05
2022-10-11T02:49:46.216Z,2.22
2022-10-11T02:52:15.273Z,2.00
2022-10-11T02:54:43.007Z,2.13
2022-10-11T02:57:10.717Z,2.05
2022-10-11T02:59:38.480Z,2.28
2022-10-11T03:02:06.331Z,2.35
2022-10-11T03:04:35.496Z,2.30
2022-10-11T03:07:03.245Z,2.03
2022-10-11T03:09:31.011Z,2.25
2022-10-11T03:11:58.741Z,2.30
2022-10-11T03:14:26.521Z,2.00
2022-10-11T03:16:54.281Z,2.28
2022-10-11T03:19:22.015Z,2.20
2022-10-11T03:21:51.119Z,2.35
2022-10-11T03:24:18.865Z,2.10
2022-10-11T03:26:46.608Z,2.30
2022-10-11T03:29:14.516Z,2.30
2022-10-11T03:31:42.261Z,2.25
2022-10-11T03:34:10.544Z,2.10
2022-10-11T03:36:38.390Z,1.85
2022-10-11T03:39:07.745Z,2.53
2022-10-11T03:41:35.607Z,2.00
2022-10-11T03:44:03.607Z,2.22
2022-10-11T03:46:31.738Z,2.00
2022-10-11T03:48:59.473Z,1.77
2022-10-11T03:51:27.357Z,1.85
2022-10-11T03:53:55.123Z,1.90
2022-10-11T03:56:24.247Z,1.90
2022-10-11T03:58:51.988Z,2.00
2022-10-11T04:01:20.086Z,2.42
2022-10-11T04:03:47.933Z,2.10
2022-10-11T04:06:15.688Z,2.05
2022-10-11T04:08:43.457Z,1.83
2022-10-11T04:11:11.193Z,1.73
2022-10-11T04:13:40.316Z,1.92
2022-10-11T04:16:08.681Z,1.88
2022-10-11T04:18:36.575Z,2.45
2022-10-11T04:21:04.543Z,2.35
2022-10-11T04:23:33.306Z,1.98
2022-10-11T04:26:01.438Z,1.70
2022-10-11T04:28:29.448Z,1.67
2022-10-11T04:30:58.840Z,2.30
2022-10-11T04:33:26.652Z,2.10
2022-10-11T04:35:54.731Z,1.98
2022-10-11T04:38:22.718Z,2.13
2022-10-11T04:40:50.812Z,2.03
2022-10-11T04:43:18.995Z,2.10
2022-10-11T04:45:46.730Z,1.98
2022-10-11T04:48:15.833Z,2.15
2022-10-11T04:50:45.386Z,2.45
2022-10-11T04:53:17.239Z,2.08
2022-10-11T04:55:45.001Z,1.90
2022-10-11T04:58:12.688Z,1.55
2022-10-11T05:00:40.422Z,1.83
2022-10-11T05:03:08.158Z,1.70
2022-10-11T05:05:37.265Z,1.92
2022-10-11T05:08:05.210Z,1.77
2022-10-11T05:10:32.965Z,1.85
2022-10-11T05:13:00.691Z,1.98
2022-10-11T05:15:28.478Z,1.65
2022-10-11T05:17:56.225Z,1.65
2022-10-11T05:20:23.938Z,1.60
2022-10-11T05:22:53.067Z,2.10
2022-10-11T05:25:20.806Z,1.95
2022-10-11T05:27:48.715Z,1.77
2022-10-11T05:30:16.488Z,2.40
2022-10-11T05:32:44.305Z,2.10
2022-10-11T05:35:12.027Z,2.13
2022-10-11T05:37:39.780Z,2.17
2022-10-11T05:40:10.949Z,2.10
2022-10-11T05:42:38.740Z,2.00
2022-10-11T05:45:07.672Z,2.30
2022-10-11T05:47:35.481Z,2.60
2022-10-11T05:50:03.197Z,1.90
2022-10-11T05:52:31.698Z,1.70
2022-10-11T05:54:59.418Z,2.10
2022-10-11T05:57:28.560Z,2.25
2022-10-11T05:59:56.319Z,2.28
2022-10-11T06:02:24.073Z,2.13
2022-10-11T06:04:51.792Z,2.22
2022-10-11T06:07:19.542Z,2.08
2022-10-11T06:09:47.273Z,2.13
2022-10-11T06:12:15.232Z,2.47
2022-10-11T06:14:44.558Z,2.90
2022-10-11T06:17:12.289Z,2.80
2022-10-11T06:19:40.108Z,2.42
2022-10-11T06:22:07.866Z,2.88
2022-10-11T06:24:35.648Z,2.70
2022-10-11T06:27:12.984Z,2.72
2022-10-11T06:29:41.254Z,2.17
2022-10-11T06:32:10.349Z,1.98
2022-10-11T06:34:38.074Z,2.38
2022-10-11T06:37:05.881Z,2.28
2022-10-11T06:39:34.438Z,2.40
2022-10-11T06:42:02.207Z,2.80
2022-10-11T06:44:30.082Z,2.63
2022-10-11T06:46:57.826Z,2.83
2022-10-11T06:49:26.897Z,2.75
2022-10-11T06:51:54.622Z,2.90
2022-10-11T06:54:22.427Z,2.92
2022-10-11T06:56:50.185Z,2.50
2022-10-11T06:59:17.955Z,2.60
2022-10-11T07:01:45.745Z,3.03
2022-10-11T07:04:13.492Z,3.20
2022-10-11T07:06:43.066Z,3.85
2022-10-11T07:09:10.984Z,4.10
2022-10-11T07:11:38.776Z,3.85
2022-10-11T07:14:07.893Z,4.00
2022-10-11T07:16:37.253Z,3.85
2022-10-11T07:19:06.502Z,3.65
2022-10-11T07:21:36.037Z,3.90
2022-10-11T07:24:05.837Z,3.83
2022-10-11T07:26:38.819Z,4.05
2022-10-11T07:29:07.752Z,4.55
2022-10-11T07:31:37.224Z,4.22
2022-10-11T07:34:05.026Z,3.80
2022-10-11T07:36:32.813Z,4.00
2022-10-11T07:39:00.607Z,3.80
2022-10-11T07:41:29.811Z,3.92
2022-10-11T07:43:57.552Z,3.95
2022-10-11T07:46:25.466Z,3.75
2022-10-11T07:48:53.460Z,3.80
2022-10-11T07:51:22.608Z,3.50
2022-10-11T07:53:51.883Z,3.95
2022-10-11T07:56:21.468Z,3.75
2022-10-11T07:58:53.706Z,3.70
2022-10-11T08:01:22.207Z,3.75
2022-10-11T08:03:51.116Z,3.60
2022-10-11T08:06:21.190Z,3.33
2022-10-11T08:08:50.761Z,3.55
2022-10-11T08:11:22.929Z,3.53
2022-10-11T08:13:52.362Z,3.28
2022-10-11T08:16:20.376Z,3.15
2022-10-11T08:18:48.200Z,3.40
2022-10-11T08:21:18.890Z,3.28
2022-10-11T08:23:46.945Z,2.80
2022-10-11T08:26:15.228Z,3.15
2022-10-11T08:28:43.044Z,2.90
2022-10-11T08:31:15.628Z,2.92
2022-10-11T08:33:43.617Z,2.65
2022-10-11T08:36:12.241Z,2.85
2022-10-11T08:38:41.021Z,3.05
2022-10-11T08:41:26.584Z,2.75
2022-10-11T08:44:06.041Z,2.83
2022-10-11T08:46:37.981Z,2.65
2022-10-11T08:49:09.655Z,2.83
2022-10-11T08:51:43.564Z,2.13
2022-10-11T08:54:17.932Z,2.30
2022-10-11T08:56:47.024Z,2.05
2022-10-11T08:59:30.499Z,1.73
2022-10-11T09:02:10.717Z,2.20
2022-10-11T09:04:38.508Z,2.08
2022-10-11T09:07:12.833Z,2.92
2022-10-11T09:09:53.050Z,1.90
2022-10-11T09:12:38.397Z,1.98
2022-10-11T09:15:20.948Z,2.00
2022-10-11T09:18:02.451Z,2.00
2022-10-11T09:20:44.690Z,2.05
2022-10-11T09:23:24.497Z,1.80
2022-10-11T09:25:59.573Z,1.75
2022-10-11T09:28:38.244Z,1.50
2022-10-11T09:31:11.121Z,1.60
2022-10-11T09:33:45.180Z,2.00
2022-10-11T09:36:20.816Z,1.48
2022-10-11T09:38:55.462Z,1.13
2022-10-11T09:41:31.681Z,1.60
2022-10-11T09:43:59.674Z,2.10
2022-10-11T09:46:35.692Z,1.60
2022-10-11T09:49:09.817Z,1.58
2022-10-11T09:51:38.058Z,1.27
2022-10-11T09:54:07.396Z,1.50
2022-10-11T09:56:42.998Z,1.30
2022-10-11T09:59:22.020Z,1.75
2022-10-11T10:01:50.199Z,1.50
2022-10-11T10:04:19.393Z,1.70
2022-10-11T10:06:47.158Z,1.33
2022-10-11T10:09:28.433Z,1.33
2022-10-11T10:11:57.292Z,1.48
2022-10-11T10:14:28.009Z,1.35
2022-10-11T10:17:02.013Z,1.30
2022-10-11T10:19:43.893Z,1.30
2022-10-11T10:22:18.621Z,1.52
2022-10-11T10:24:48.213Z,1.40
2022-10-11T10:27:18.978Z,1.90
2022-10-11T10:30:02.776Z,1.60
2022-10-11T10:32:37.946Z,1.55
2022-10-11T10:35:17.479Z,1.60
2022-10-11T10:37:50.387Z,1.33
2022-10-11T10:40:22.627Z,1.27
2022-10-11T10:42:51.502Z,1.52
2022-10-11T10:45:21.696Z,1.55
2022-10-11T10:48:06.475Z,1.30
2022-10-11T10:50:53.694Z,1.27
2022-10-11T10:53:30.220Z,1.40
2022-10-11T10:56:05.457Z,1.63
2022-10-11T10:59:02.667Z,1.70
2022-10-11T11:01:33.659Z,1.25
2022-10-11T11:04:11.290Z,1.45
2022-10-11T11:06:46.617Z,1.40
2022-10-11T11:09:30.744Z,1.38
2022-10-11T11:12:12.667Z,1.75
2022-10-11T11:14:50.566Z,1.20
2022-10-11T11:17:30.027Z,1.55
2022-10-11T11:20:14.989Z,1.40
2022-10-11T11:22:53.362Z,1.60
2022-10-11T11:25:31.655Z,1.55
2022-10-11T11:28:14.137Z,1.52
2022-10-11T11:30:51.954Z,1.75
2022-10-11T11:35:55.105Z,1.60
2022-10-11T11:38:30.005Z,1.60
2022-10-11T11:41:01.912Z,1.30
2022-10-11T11:43:36.253Z,1.60
2022-10-11T11:46:09.586Z,1.92
2022-10-11T11:48:38.502Z,1.73
2022-10-11T11:51:11.378Z,1.70
2022-10-11T11:53:52.906Z,1.83
2022-10-11T11:56:28.076Z,1.60
2022-10-11T11:59:05.124Z,1.77
2022-10-11T12:01:40.425Z,1.73
2022-10-11T12:04:15.049Z,1.60
2022-10-11T12:07:04.170Z,1.63
2022-10-11T12:09:33.516Z,1.20
2022-10-11T12:12:04.791Z,1.40
2022-10-11T12:14:39.005Z,1.23
2022-10-11T12:17:17.127Z,1.42
2022-10-11T12:20:02.918Z,1.67
2022-10-11T12:23:01.190Z,1.65
2022-10-11T12:25:43.049Z,1.42
2022-10-11T12:29:03.615Z,1.27
2022-10-11T12:31:34.308Z,1.20
2022-10-11T12:34:36.228Z,1.30
2022-10-11T12:37:50.000Z,1.25
2022-10-11T12:40:41.715Z,1.30
2022-10-11T12:43:31.530Z,1.30
2022-10-11T12:46:40.227Z,1.40
2022-10-11T12:49:29.044Z,1.60
2022-10-11T12:52:01.839Z,1.33
2022-10-11T12:55:01.377Z,1.70
2022-10-11T12:58:07.546Z,1.52
2022-10-11T13:00:45.569Z,1.23
2022-10-11T13:03:32.502Z,1.60
2022-10-11T13:06:02.120Z,1.50
2022-10-11T13:08:32.773Z,1.70
2022-10-11T13:11:03.823Z,1.25
2022-10-11T13:13:34.293Z,1.58
2022-10-11T13:16:10.038Z,1.30
2022-10-11T13:18:37.801Z,1.63
2022-10-11T13:21:21.470Z,1.58
2022-10-11T13:23:55.683Z,1.35
2022-10-11T13:26:23.813Z,1.30
2022-10-11T13:28:51.975Z,1.40
2022-10-11T13:31:21.127Z,1.30
2022-10-11T13:33:49.049Z,1.42
2022-10-11T13:36:19.357Z,1.30
2022-10-11T13:38:53.470Z,1.52
2022-10-11T13:41:22.196Z,1.80
2022-10-11T13:43:50.819Z,2.13
2022-10-11T13:46:24.111Z,2.10
2022-10-11T13:48:59.921Z,1.95
2022-10-11T13:51:30.107Z,2.60
2022-10-11T13:53:59.405Z,2.83
2022-10-11T13:56:28.481Z,2.30
2022-10-11T13:58:56.615Z,2.53
2022-10-11T14:01:27.916Z,3.25
2022-10-11T14:03:58.472Z,2.33
2022-10-11T14:06:39.558Z,2.25
2022-10-11T14:09:07.947Z,10.32
2022-10-11T14:11:37.494Z,10.48
2022-10-11T14:14:29.948Z,6.00
2022-10-11T14:17:06.198Z,12.02
2022-10-11T14:19:33.948Z,4.93
2022-10-11T14:22:01.747Z,16.17
2022-10-11T14:24:29.485Z,3.90
2022-10-11T14:26:58.438Z,3.40
2022-10-11T14:29:28.879Z,3.28
2022-10-11T14:32:00.081Z,2.70
2022-10-11T14:34:29.870Z,2.22
2022-10-11T14:36:57.689Z,1.63
2022-10-11T14:39:28.762Z,1.42
2022-10-11T14:41:56.572Z,1.50
2022-10-11T14:44:25.979Z,1.67
2022-10-11T14:46:55.063Z,1.50
2022-10-11T14:49:25.567Z,2.00
2022-10-11T14:51:57.079Z,1.55
2022-10-11T14:54:26.913Z,2.10
2022-10-11T14:56:57.497Z,2.90
2022-10-11T14:59:28.213Z,1.40
2022-10-11T15:04:25.932Z,1.83
2022-10-11T15:06:56.973Z,2.13
2022-10-11T15:09:29.182Z,1.80
2022-10-11T15:11:57.581Z,1.50
2022-10-11T15:14:26.246Z,2.35
2022-10-11T15:16:56.061Z,2.03
2022-10-11T15:19:25.773Z,2.30
2022-10-11T15:21:55.239Z,2.70
2022-10-11T15:24:23.041Z,2.10
2022-10-11T15:26:50.928Z,2.05
2022-10-11T15:29:20.312Z,2.30
2022-10-11T15:31:49.233Z,1.90
2022-10-11T15:34:17.124Z,2.60
2022-10-11T15:36:44.893Z,2.53
2022-10-11T15:39:27.097Z,2.25
2022-10-11T15:41:54.845Z,2.78
2022-10-11T15:44:22.623Z,3.40
2022-10-11T15:46:50.440Z,4.00
2022-10-11T15:49:19.042Z,4.18
2022-10-11T15:51:46.964Z,3.60
2022-10-11T15:54:14.725Z,3.58
2022-10-11T15:56:44.203Z,3.08
2022-10-11T15:59:12.652Z,3.00
2022-10-11T16:01:40.782Z,2.55
2022-10-11T16:04:08.638Z,2.53
2022-10-11T16:06:36.412Z,2.53
2022-10-11T16:09:04.759Z,2.30
2022-10-11T16:11:32.484Z,2.30
2022-10-11T16:14:01.621Z,2.20
2022-10-11T16:16:29.470Z,2.25
2022-10-11T16:18:57.216Z,2.10
2022-10-11T16:21:25.015Z,1.90
2022-10-11T16:23:52.773Z,2.03
2022-10-11T16:26:20.574Z,2.15
2022-10-11T16:28:48.715Z,2.25
2022-10-11T16:31:20.883Z,2.42
2022-10-11T16:33:50.113Z,2.70
2022-10-11T16:36:39.941Z,2.40
2022-10-11T16:39:10.368Z,2.85
2022-10-11T16:41:38.710Z,2.60
2022-10-11T16:44:07.137Z,2.80
2022-10-11T16:46:36.225Z,3.55
2022-10-11T16:49:04.590Z,3.13
2022-10-11T16:51:32.450Z,2.90
2022-10-11T16:54:00.360Z,3.42
2022-10-11T16:56:28.217Z,2.90
2022-10-11T16:58:55.958Z,3.00
2022-10-11T17:01:23.961Z,2.92
2022-10-11T17:03:53.765Z,2.83
2022-10-11T17:06:23.134Z,3.35
2022-10-11T17:08:51.146Z,3.00
2022-10-11T17:11:20.141Z,3.63
2022-10-11T17:13:48.107Z,3.15
2022-10-11T17:16:16.583Z,2.70
2022-10-11T17:18:44.767Z,3.30
2022-10-11T17:21:16.117Z,3.60
2022-10-11T17:23:44.167Z,3.53
2022-10-11T17:26:16.826Z,4.25
2022-10-11T17:28:45.246Z,4.60
2022-10-11T17:31:13.046Z,4.05
2022-10-11T17:33:40.814Z,4.18
2022-10-11T17:36:23.607Z,3.78
2022-10-11T17:38:52.568Z,3.67
2022-10-11T17:41:20.860Z,3.65
2022-10-11T17:43:48.830Z,4.38
2022-10-11T17:46:18.513Z,3.75
2022-10-11T17:48:46.224Z,3.05
2022-10-11T17:51:16.175Z,3.30
2022-10-11T17:53:47.482Z,3.60
2022-10-11T17:56:17.993Z,4.03
2022-10-11T17:58:46.378Z,3.78
2022-10-11T18:01:17.089Z,3.28
2022-10-11T18:03:45.850Z,3.78
2022-10-11T18:06:14.817Z,4.03
2022-10-11T18:08:42.716Z,3.85
2022-10-11T18:11:13.630Z,4.47
2022-10-11T18:13:45.839Z,3.60
2022-10-11T18:16:14.197Z,4.00
2022-10-11T18:18:42.308Z,3.97
2022-10-11T18:21:10.609Z,3.38
2022-10-11T18:23:38.435Z,3.47
2022-10-11T18:26:12.334Z,3.22
2022-10-11T18:28:40.678Z,3.63
2022-10-11T18:31:12.927Z,3.50
2022-10-11T18:33:42.287Z,3.30
2022-10-11T18:36:13.249Z,3.55
2022-10-11T18:41:15.820Z,3.03
2022-10-11T18:43:43.816Z,3.97
2022-10-11T18:46:16.139Z,3.42
2022-10-11T18:48:45.745Z,3.33
2022-10-11T18:51:15.815Z,3.45
2022-10-11T18:53:43.649Z,3.58
2022-10-11T18:56:15.084Z,3.83
2022-10-11T18:58:44.147Z,4.20
2022-10-11T19:01:15.852Z,5.25
2022-10-11T19:03:44.231Z,6.97
2022-10-11T19:06:17.108Z,9.38
2022-10-11T19:08:45.579Z,14.52
2022-10-11T19:11:15.610Z,7.18
2022-10-11T19:13:43.961Z,10.80
2022-10-11T19:16:13.493Z,10.85
2022-10-11T19:18:44.278Z,5.95
2022-10-11T19:21:14.480Z,5.78
2022-10-11T19:23:44.173Z,5.63
2022-10-11T19:26:16.503Z,5.70
2022-10-11T19:28:45.420Z,5.47
2022-10-11T19:31:16.822Z,5.35
2022-10-11T19:33:45.158Z,5.65
2022-10-11T19:36:14.449Z,5.65
2022-10-11T19:38:46.082Z,6.53
2022-10-11T19:41:16.912Z,6.43
2022-10-11T19:43:45.028Z,5.97
2022-10-11T19:46:20.252Z,6.32
2022-10-11T19:48:55.518Z,6.28
2022-10-11T19:51:25.771Z,8.50
2022-10-11T19:53:56.724Z,8.02
2022-10-11T19:56:27.197Z,9.55
2022-10-11T19:58:55.198Z,10.85
2022-10-11T20:01:25.416Z,11.07
2022-10-11T20:03:55.686Z,10.38
2022-10-11T20:06:25.322Z,10.80
2022-10-11T20:09:16.667Z,9.02
2022-10-11T20:11:44.470Z,10.07
2022-10-11T20:14:12.249Z,10.70
2022-10-11T20:16:41.436Z,11.02
2022-10-11T20:19:09.218Z,9.82
2022-10-11T20:21:36.951Z,10.13
2022-10-11T20:24:06.897Z,8.98
2022-10-11T20:26:34.984Z,9.30
2022-10-11T20:29:04.067Z,9.93
2022-10-11T20:31:33.855Z,10.30
2022-10-11T20:34:04.870Z,9.57
2022-10-11T20:36:34.309Z,9.93
2022-10-11T20:39:02.279Z,10.57
2022-10-11T20:41:32.288Z,8.73
2022-10-11T20:44:01.951Z,9.65
2022-10-11T20:46:32.575Z,8.90
2022-10-11T20:49:02.528Z,9.02
2022-10-11T20:51:31.121Z,9.38
2022-10-11T20:54:00.519Z,10.38
2022-10-11T20:56:29.680Z,10.45
2022-10-11T20:58:58.942Z,10.07
2022-10-11T21:01:28.929Z,11.02
2022-10-11T21:04:00.217Z,10.27
2022-10-11T21:06:28.878Z,10.82
2022-10-11T21:08:58.754Z,11.23
2022-10-11T21:11:27.031Z,11.38
2022-10-11T21:13:56.333Z,12.05
2022-10-11T21:16:24.427Z,12.10
2022-10-11T21:18:52.889Z,10.95
2022-10-11T21:21:23.466Z,11.25
2022-10-11T21:23:54.508Z,10.75
2022-10-11T21:26:22.306Z,10.40
2022-10-11T21:28:50.178Z,11.05
2022-10-11T21:31:19.729Z,10.80
2022-10-11T21:33:47.936Z,11.02
2022-10-11T21:36:17.583Z,10.00
2022-10-11T21:38:47.434Z,11.25
2022-10-11T21:41:17.869Z,10.50
2022-10-11T21:43:45.650Z,8.23
2022-10-11T21:46:16.501Z,7.75
2022-10-11T21:48:44.588Z,7.93
2022-10-11T21:53:49.228Z,10.00
2022-10-11T21:56:17.002Z,9.13
2022-10-11T21:58:47.006Z,9.02
2022-10-11T22:01:14.950Z,8.60
2022-10-11T22:03:42.714Z,7.93
2022-10-11T22:06:11.114Z,7.15
2022-10-11T22:08:39.236Z,7.97
2022-10-11T22:11:09.647Z,8.20
2022-10-11T22:13:37.921Z,7.88
2022-10-11T22:16:07.081Z,8.32
2022-10-11T22:18:34.928Z,7.25
2022-10-11T22:21:04.387Z,7.60
2022-10-11T22:23:32.140Z,7.13
2022-10-11T22:26:04.033Z,6.57
2022-10-11T22:28:33.511Z,6.38
2022-10-11T22:31:01.887Z,7.13
2022-10-11T22:33:29.672Z,6.32
2022-10-11T22:35:57.801Z,6.85
2022-10-11T22:38:26.335Z,5.82
2022-10-11T22:40:54.721Z,5.75
2022-10-11T22:43:22.486Z,5.57
2022-10-11T22:45:51.631Z,5.38
2022-10-11T22:48:19.407Z,5.95
2022-10-11T22:50:47.416Z,5.30
2022-10-11T22:53:16.220Z,5.20
2022-10-11T22:55:44.161Z,5.57
2022-10-11T22:58:11.875Z,5.28
2022-10-11T23:00:39.658Z,5.25
2022-10-11T23:03:08.750Z,5.20
2022-10-11T23:05:36.611Z,5.05
2022-10-11T23:08:04.502Z,5.70
2022-10-11T23:10:32.273Z,5.28
2022-10-11T23:12:59.954Z,5.40
2022-10-11T23:15:27.706Z,4.95
2022-10-11T23:17:55.438Z,5.85
2022-10-11T23:20:24.522Z,5.03
2022-10-11T23:22:52.260Z,5.45
2022-10-11T23:25:20.008Z,5.15
2022-10-11T23:27:47.798Z,5.22
2022-10-11T23:30:15.845Z,6.03
2022-10-11T23:32:43.682Z,4.95
2022-10-11T23:35:11.377Z,5.43
2022-10-11T23:37:40.631Z,5.32
2022-10-11T23:40:10.401Z,4.82
2022-10-11T23:42:38.245Z,4.90
2022-10-11T23:45:07.043Z,5.13
2022-10-11T23:47:35.002Z,4.85
2022-10-11T23:50:02.961Z,4.63
2022-10-11T23:52:30.730Z,4.85
2022-10-11T23:54:59.828Z,4.35
2022-10-11T23:57:27.584Z,5.10
2022-10-11T23:59:55.290Z,4.53
